createdAt,value
2016-05-11T00:00:36.403Z,0
2016-05-11T00:01:36.327Z,0
2016-05-11T00:02:36.439Z,0
2016-05-11T00:03:36.489Z,0
2016-05-11T00:04:36.491Z,0
2016-05-11T00:05:36.525Z,0
2016-05-11T00:06:36.544Z,0
2016-05-11T00:07:36.577Z,0
2016-05-11T00:08:36.612Z,0
2016-05-11T00:09:36.302Z,0
2016-05-11T00:10:36.647Z,0
2016-05-11T00:11:36.683Z,0
2016-05-11T00:12:36.544Z,0
2016-05-11T00:13:36.577Z,0
2016-05-11T00:14:36.597Z,0
2016-05-11T00:15:36.771Z,0
2016-05-11T00:16:36.805Z,0
2016-05-11T00:17:36.823Z,0
2016-05-11T00:18:36.888Z,0
2016-05-11T00:19:36.876Z,0
2016-05-11T00:20:36.737Z,0
2016-05-11T00:21:36.771Z,0
2016-05-11T00:22:36.649Z,0
2016-05-11T00:23:36.979Z,0
2016-05-11T00:24:36.999Z,0
2016-05-11T00:25:37.017Z,0
2016-05-11T00:26:36.910Z,0
2016-05-11T00:27:37.085Z,0
2016-05-11T00:28:37.103Z,0
2016-05-11T00:29:37.168Z,0
2016-05-11T00:30:37.186Z,0
2016-05-11T00:31:37.033Z,0
2016-05-11T00:32:37.207Z,0
2016-05-11T00:33:37.070Z,0
2016-05-11T00:34:37.087Z,0
2016-05-11T00:35:37.278Z,0
2016-05-11T00:36:37.297Z,0
2016-05-11T00:37:37.174Z,0
2016-05-11T00:38:37.192Z,0
2016-05-11T00:39:37.383Z,0
2016-05-11T00:40:37.244Z,0
2016-05-11T00:41:37.435Z,0
2016-05-11T00:42:37.296Z,0
2016-05-11T00:43:37.472Z,0
2016-05-11T00:44:37.521Z,0
2016-05-11T00:45:38.133Z,0
2016-05-11T00:46:37.558Z,0
2016-05-11T00:47:37.576Z,0
2016-05-11T00:48:37.594Z,0
2016-05-11T00:49:37.613Z,0
2016-05-11T00:50:37.646Z,0
2016-05-11T00:51:37.680Z,0
2016-05-11T00:52:37.698Z,0
2016-05-11T00:53:37.717Z,0
2016-05-11T00:54:37.595Z,0
2016-05-11T00:55:37.629Z,0
2016-05-11T00:56:37.803Z,0
2016-05-11T00:57:37.821Z,0
2016-05-11T00:58:37.543Z,0
2016-05-11T00:59:37.873Z,0
2016-05-11T01:00:38.282Z,0
2016-05-11T01:01:37.925Z,0
2016-05-11T01:02:37.803Z,0
2016-05-11T01:03:37.822Z,0
2016-05-11T01:04:38.012Z,0
2016-05-11T01:05:38.031Z,0
2016-05-11T01:06:38.048Z,0
2016-05-11T01:07:38.083Z,0
2016-05-11T01:08:38.100Z,0
2016-05-11T01:09:37.978Z,0
2016-05-11T01:10:37.997Z,0
2016-05-11T01:11:38.172Z,0
2016-05-11T01:12:38.206Z,0
2016-05-11T01:13:38.224Z,0
2016-05-11T01:14:38.102Z,0
2016-05-11T01:15:39.057Z,0
2016-05-11T01:16:38.295Z,0
2016-05-11T01:17:38.218Z,0
2016-05-11T01:18:38.346Z,0
2016-05-11T01:19:38.365Z,0
2016-05-11T01:20:38.399Z,0
2016-05-11T01:21:38.433Z,0
2016-05-11T01:22:38.466Z,0
2016-05-11T01:23:38.563Z,0
2016-05-11T01:24:38.346Z,0
2016-05-11T01:25:38.538Z,0
2016-05-11T01:26:38.399Z,0
2016-05-11T01:27:38.418Z,0
2016-05-11T01:28:38.452Z,0
2016-05-11T01:29:38.626Z,0
2016-05-11T01:30:39.237Z,0
2016-05-11T01:31:38.678Z,0
2016-05-11T01:32:38.698Z,0
2016-05-11T01:33:38.715Z,0
2016-05-11T01:34:38.765Z,0
2016-05-11T01:35:38.642Z,0
2016-05-11T01:36:38.817Z,0
2016-05-11T01:37:38.819Z,0
2016-05-11T01:38:38.854Z,0
2016-05-11T01:39:38.872Z,0
2016-05-11T01:40:38.749Z,0
2016-05-11T01:41:38.925Z,0
2016-05-11T01:42:38.958Z,0
2016-05-11T01:43:38.820Z,0
2016-05-11T01:44:38.855Z,0
2016-05-11T01:45:39.044Z,0
2016-05-11T01:46:39.046Z,0
2016-05-11T01:47:39.065Z,0
2016-05-11T01:48:39.100Z,0
2016-05-11T01:49:38.961Z,0
2016-05-11T01:50:39.167Z,0
2016-05-11T01:51:39.169Z,0
2016-05-11T01:52:39.204Z,0
2016-05-11T01:53:39.238Z,0
2016-05-11T01:54:39.256Z,0
2016-05-11T01:55:39.290Z,0
2016-05-11T01:56:39.293Z,0
2016-05-11T01:57:39.327Z,0
2016-05-11T01:58:39.204Z,0
2016-05-11T01:59:39.379Z,0
2016-05-11T02:00:39.803Z,0
2016-05-11T02:01:39.431Z,0
2016-05-11T02:02:39.448Z,0
2016-05-11T02:03:39.515Z,0
2016-05-11T02:04:39.502Z,0
2016-05-11T02:05:39.395Z,0
2016-05-11T02:06:39.397Z,0
2016-05-11T02:07:39.572Z,0
2016-05-11T02:08:39.606Z,0
2016-05-11T02:09:39.311Z,0
2016-05-11T02:10:39.642Z,0
2016-05-11T02:11:39.677Z,0
2016-05-11T02:12:39.695Z,0
2016-05-11T02:13:39.728Z,0
2016-05-11T02:14:39.794Z,0
2016-05-11T02:15:39.672Z,0
2016-05-11T02:16:39.800Z,0
2016-05-11T02:17:39.677Z,0
2016-05-11T02:18:39.852Z,0
2016-05-11T02:19:39.714Z,0
2016-05-11T02:20:39.747Z,0
2016-05-11T02:21:39.938Z,0
2016-05-11T02:22:39.800Z,0
2016-05-11T02:23:39.959Z,0
2016-05-11T02:24:39.993Z,0
2016-05-11T02:25:40.057Z,0
2016-05-11T02:26:40.045Z,0
2016-05-11T02:27:39.766Z,0
2016-05-11T02:28:40.113Z,0
2016-05-11T02:29:40.115Z,0
2016-05-11T02:30:40.884Z,0
2016-05-11T02:31:40.168Z,0
2016-05-11T02:32:40.202Z,0
2016-05-11T02:33:40.064Z,0
2016-05-11T02:34:40.239Z,0
2016-05-11T02:35:40.287Z,0
2016-05-11T02:36:40.290Z,0
2016-05-11T02:37:40.325Z,0
2016-05-11T02:38:40.359Z,0
2016-05-11T02:39:40.362Z,0
2016-05-11T02:40:40.239Z,0
2016-05-11T02:41:40.414Z,0
2016-05-11T02:42:40.447Z,0
2016-05-11T02:43:40.309Z,0
2016-05-11T02:44:40.358Z,0
2016-05-11T02:45:40.534Z,0
2016-05-11T02:46:40.552Z,0
2016-05-11T02:47:40.570Z,0
2016-05-11T02:48:40.589Z,0
2016-05-11T02:49:40.607Z,0
2016-05-11T02:50:40.641Z,0
2016-05-11T02:51:40.675Z,0
2016-05-11T02:52:40.693Z,0
2016-05-11T02:53:40.711Z,0
2016-05-11T02:54:40.746Z,0
2016-05-11T02:55:40.795Z,0
2016-05-11T02:56:40.782Z,0
2016-05-11T02:57:40.815Z,0
2016-05-11T02:58:40.850Z,0
2016-05-11T02:59:40.869Z,0
2016-05-11T03:00:40.762Z,0
2016-05-11T03:01:40.920Z,0
2016-05-11T03:02:40.939Z,0
2016-05-11T03:03:40.956Z,0
2016-05-11T03:04:40.990Z,0
2016-05-11T03:05:41.010Z,0
2016-05-11T03:06:41.043Z,0
2016-05-11T03:07:41.062Z,0
2016-05-11T03:08:41.095Z,0
2016-05-11T03:09:41.145Z,0
2016-05-11T03:10:41.131Z,0
2016-05-11T03:11:41.166Z,0
2016-05-11T03:12:41.184Z,0
2016-05-11T03:13:40.922Z,0
2016-05-11T03:14:41.236Z,0
2016-05-11T03:15:41.442Z,0
2016-05-11T03:16:41.289Z,0
2016-05-11T03:17:41.308Z,0
2016-05-11T03:18:41.169Z,0
2016-05-11T03:19:41.391Z,0
2016-05-11T03:20:41.393Z,0
2016-05-11T03:21:41.411Z,0
2016-05-11T03:22:41.446Z,0
2016-05-11T03:23:41.463Z,4
2016-05-11T03:24:41.327Z,4
2016-05-11T03:25:41.516Z,4
2016-05-11T03:26:41.379Z,4
2016-05-11T03:27:41.553Z,0
2016-05-11T03:28:41.587Z,0
2016-05-11T03:29:41.464Z,4
2016-05-11T03:30:41.849Z,4
2016-05-11T03:31:41.703Z,4
2016-05-11T03:32:41.620Z,4
2016-05-11T03:33:41.835Z,8
2016-05-11T03:34:41.736Z,4
2016-05-11T03:35:41.962Z,8
2016-05-11T03:36:41.838Z,8
2016-05-11T03:37:42.027Z,12
2016-05-11T03:38:42.107Z,12
2016-05-11T03:39:41.967Z,12
2016-05-11T03:40:42.154Z,12
2016-05-11T03:41:42.178Z,16
2016-05-11T03:42:42.060Z,20
2016-05-11T03:43:42.240Z,20
2016-05-11T03:44:42.279Z,24
2016-05-11T03:45:42.145Z,32
2016-05-11T03:46:42.166Z,32
2016-05-11T03:47:42.358Z,36
2016-05-11T03:48:42.393Z,40
2016-05-11T03:49:42.398Z,44
2016-05-11T03:50:42.434Z,48
2016-05-11T03:51:42.467Z,48
2016-05-11T03:52:42.487Z,56
2016-05-11T03:53:42.506Z,60
2016-05-11T03:54:42.524Z,68
2016-05-11T03:55:42.558Z,72
2016-05-11T03:56:42.577Z,80
2016-05-11T03:57:42.455Z,88
2016-05-11T03:58:42.474Z,96
2016-05-11T03:59:42.664Z,104
2016-05-11T04:00:42.543Z,112
2016-05-11T04:01:42.717Z,124
2016-05-11T04:02:42.579Z,136
2016-05-11T04:03:42.598Z,148
2016-05-11T04:04:42.819Z,160
2016-05-11T04:05:42.805Z,172
2016-05-11T04:06:42.824Z,192
2016-05-11T04:07:42.859Z,204
2016-05-11T04:08:42.720Z,216
2016-05-11T04:09:42.911Z,228
2016-05-11T04:10:42.929Z,244
2016-05-11T04:11:42.946Z,260
2016-05-11T04:12:42.980Z,276
2016-05-11T04:13:43.000Z,300
2016-05-11T04:14:43.018Z,320
2016-05-11T04:15:43.021Z,340
2016-05-11T04:16:43.070Z,360
2016-05-11T04:17:43.104Z,388
2016-05-11T04:18:43.122Z,412
2016-05-11T04:19:43.156Z,444
2016-05-11T04:20:43.174Z,476
2016-05-11T04:21:43.193Z,508
2016-05-11T04:22:43.211Z,540
2016-05-11T04:23:43.245Z,572
2016-05-11T04:24:43.123Z,600
2016-05-11T04:25:43.313Z,628
2016-05-11T04:26:43.316Z,664
2016-05-11T04:27:43.365Z,696
2016-05-11T04:28:43.228Z,728
2016-05-11T04:29:43.401Z,764
2016-05-11T04:30:43.123Z,804
2016-05-11T04:31:43.297Z,840
2016-05-11T04:32:43.473Z,872
2016-05-11T04:33:43.491Z,908
2016-05-11T04:34:43.524Z,936
2016-05-11T04:35:43.542Z,960
2016-05-11T04:36:43.577Z,984
2016-05-11T04:37:43.438Z,996
2016-05-11T04:38:43.614Z,1000
2016-05-11T04:39:43.491Z,1020
2016-05-11T04:40:43.666Z,1040
2016-05-11T04:41:43.528Z,1052
2016-05-11T04:42:43.718Z,1084
2016-05-11T04:43:43.736Z,1128
2016-05-11T04:44:43.614Z,1184
2016-05-11T04:45:43.663Z,1260
2016-05-11T04:46:43.838Z,1312
2016-05-11T04:47:43.841Z,1368
2016-05-11T04:48:43.859Z,1508
2016-05-11T04:49:43.877Z,1604
2016-05-11T04:50:43.912Z,1680
2016-05-11T04:51:43.929Z,1740
2016-05-11T04:52:43.948Z,1776
2016-05-11T04:53:43.982Z,1800
2016-05-11T04:54:44.015Z,1832
2016-05-11T04:55:44.035Z,1860
2016-05-11T04:56:44.052Z,1888
2016-05-11T04:57:44.087Z,1924
2016-05-11T04:58:44.104Z,1952
2016-05-11T04:59:44.123Z,1976
2016-05-11T05:00:44.406Z,1992
2016-05-11T05:01:43.863Z,1996
2016-05-11T05:02:44.209Z,2016
2016-05-11T05:03:44.228Z,2052
2016-05-11T05:04:44.090Z,2100
2016-05-11T05:05:44.280Z,2148
2016-05-11T05:06:44.142Z,2180
2016-05-11T05:07:44.175Z,2208
2016-05-11T05:08:44.350Z,2232
2016-05-11T05:09:44.228Z,2268
2016-05-11T05:10:44.419Z,2316
2016-05-11T05:11:44.468Z,2364
2016-05-11T05:12:44.455Z,2404
2016-05-11T05:13:44.474Z,2440
2016-05-11T05:14:44.991Z,2476
2016-05-11T05:15:44.979Z,2500
2016-05-11T05:16:44.560Z,2244
2016-05-11T05:17:44.624Z,2120
2016-05-11T05:18:45.112Z,2196
2016-05-11T05:19:44.630Z,2344
2016-05-11T05:20:44.492Z,2540
2016-05-11T05:21:44.370Z,2676
2016-05-11T05:22:44.732Z,2740
2016-05-11T05:23:44.578Z,2780
2016-05-11T05:24:44.754Z,2820
2016-05-11T05:25:44.645Z,2872
2016-05-11T05:26:44.805Z,2932
2016-05-11T05:27:44.667Z,2976
2016-05-11T05:28:44.685Z,3016
2016-05-11T05:29:44.875Z,3040
2016-05-11T05:30:45.051Z,3080
2016-05-11T05:31:44.772Z,3120
2016-05-11T05:32:44.962Z,5208
2016-05-11T05:33:44.965Z,12132
2016-05-11T05:34:44.998Z,18112
2016-05-11T05:35:44.876Z,18176
2016-05-11T05:36:45.050Z,18208
2016-05-11T05:37:45.084Z,18400
2016-05-11T05:38:45.103Z,18272
2016-05-11T05:39:44.981Z,18528
2016-05-11T05:40:45.155Z,18496
2016-05-11T05:41:45.174Z,18880
2016-05-11T05:42:45.208Z,19168
2016-05-11T05:43:45.069Z,19680
2016-05-11T05:44:45.088Z,19680
2016-05-11T05:45:45.138Z,20256
2016-05-11T05:46:45.171Z,20544
2016-05-11T05:47:45.330Z,20608
2016-05-11T05:48:45.208Z,20128
2016-05-11T05:49:45.383Z,20096
2016-05-11T05:50:45.416Z,20672
2016-05-11T05:51:45.451Z,21120
2016-05-11T05:52:45.468Z,21152
2016-05-11T05:53:45.487Z,21024
2016-05-11T05:54:45.521Z,21152
2016-05-11T05:55:45.382Z,21440
2016-05-11T05:56:45.573Z,21472
2016-05-11T05:57:45.607Z,21568
2016-05-11T05:58:45.625Z,21920
2016-05-11T05:59:45.503Z,22144
2016-05-11T06:00:45.537Z,22368
2016-05-11T06:01:45.711Z,22240
2016-05-11T06:02:45.574Z,22432
2016-05-11T06:03:45.592Z,22560
2016-05-11T06:04:45.782Z,22624
2016-05-11T06:05:45.816Z,22656
2016-05-11T06:06:45.834Z,22784
2016-05-11T06:07:45.869Z,22720
2016-05-11T06:08:45.886Z,23072
2016-05-11T06:09:45.781Z,23072
2016-05-11T06:10:45.798Z,23136
2016-05-11T06:11:46.004Z,23072
2016-05-11T06:12:46.008Z,23488
2016-05-11T06:13:46.041Z,23520
2016-05-11T06:14:46.059Z,23648
2016-05-11T06:15:45.936Z,23616
2016-05-11T06:16:46.252Z,23616
2016-05-11T06:17:46.161Z,23648
2016-05-11T06:18:46.163Z,23520
2016-05-11T06:19:46.308Z,23776
2016-05-11T06:20:50.153Z,24416
2016-05-11T06:21:52.749Z,24416
2016-05-11T06:22:49.081Z,24192
2016-05-11T06:23:51.162Z,24512
2016-05-11T06:24:50.070Z,25056
2016-05-11T06:25:50.917Z,25504
2016-05-11T06:26:46.654Z,25760
2016-05-11T06:27:46.407Z,26400
2016-05-11T06:28:46.332Z,26880
2016-05-11T06:29:46.318Z,27232
2016-05-11T06:30:46.696Z,27776
2016-05-11T06:31:46.354Z,27872
2016-05-11T06:32:46.546Z,27648
2016-05-11T06:33:46.423Z,27680
2016-05-11T06:34:46.613Z,27968
2016-05-11T06:35:46.632Z,28256
2016-05-11T06:36:46.665Z,28224
2016-05-11T06:37:46.700Z,28544
2016-05-11T06:38:46.561Z,29056
2016-05-11T06:39:46.736Z,28800
2016-05-11T06:40:46.614Z,28288
2016-05-11T06:41:46.491Z,28320
2016-05-11T06:42:46.681Z,28416
2016-05-11T06:43:46.855Z,28288
2016-05-11T06:44:46.733Z,27936
2016-05-11T06:45:47.237Z,27712
2016-05-11T06:46:46.958Z,27968
2016-05-11T06:47:46.977Z,28352
2016-05-11T06:48:46.994Z,28576
2016-05-11T06:49:47.044Z,28704
2016-05-11T06:50:47.063Z,28544
2016-05-11T06:51:47.096Z,28608
2016-05-11T06:52:46.958Z,27488
2016-05-11T06:53:47.133Z,25920
2016-05-11T06:54:47.026Z,24864
2016-05-11T06:55:47.216Z,25248
2016-05-11T06:56:47.094Z,26080
2016-05-11T06:57:47.268Z,27648
2016-05-11T06:58:47.287Z,28256
2016-05-11T06:59:47.305Z,27840
2016-05-11T07:00:47.574Z,27712
2016-05-11T07:01:47.390Z,27328
2016-05-11T07:02:47.094Z,26784
2016-05-11T07:03:47.426Z,26272
2016-05-11T07:04:47.319Z,26784
2016-05-11T07:05:47.493Z,27200
2016-05-11T07:06:47.528Z,26944
2016-05-11T07:07:47.561Z,27424
2016-05-11T07:08:47.439Z,27168
2016-05-11T07:09:47.457Z,26176
2016-05-11T07:10:47.475Z,26720
2016-05-11T07:11:47.509Z,27584
2016-05-11T07:12:47.699Z,27680
2016-05-11T07:13:47.578Z,28288
2016-05-11T07:14:47.752Z,28064
2016-05-11T07:15:47.723Z,27936
2016-05-11T07:16:47.819Z,28096
2016-05-11T07:17:47.853Z,28352
2016-05-11T07:18:47.888Z,28544
2016-05-11T07:19:47.905Z,29024
2016-05-11T07:20:47.940Z,29152
2016-05-11T07:21:47.974Z,25760
2016-05-11T07:22:47.851Z,26560
2016-05-11T07:23:48.026Z,27200
2016-05-11T07:24:47.904Z,28128
2016-05-11T07:25:48.093Z,28704
2016-05-11T07:26:48.128Z,28608
2016-05-11T07:27:48.147Z,28288
2016-05-11T07:28:48.180Z,28256
2016-05-11T07:29:48.057Z,27968
2016-05-11T07:30:48.685Z,27840
2016-05-11T07:31:48.579Z,27520
2016-05-11T07:32:48.300Z,27520
2016-05-11T07:33:48.350Z,27008
2016-05-11T07:34:48.368Z,27136
2016-05-11T07:35:48.402Z,27136
2016-05-11T07:36:48.420Z,26432
2016-05-11T07:37:48.470Z,25888
2016-05-11T07:38:48.489Z,25696
2016-05-11T07:39:48.523Z,25728
2016-05-11T07:40:48.400Z,25312
2016-05-11T07:41:48.575Z,24992
2016-05-11T07:42:48.625Z,24256
2016-05-11T07:43:48.486Z,23744
2016-05-11T07:44:48.661Z,23456
2016-05-11T07:45:48.695Z,23232
2016-05-11T07:46:48.729Z,22816
2016-05-11T07:47:48.763Z,22336
2016-05-11T07:48:48.797Z,21792
2016-05-11T07:49:48.814Z,21760
2016-05-11T07:50:48.692Z,21056
2016-05-11T07:51:48.413Z,20416
2016-05-11T07:52:48.916Z,20480
2016-05-11T07:53:48.936Z,20000
2016-05-11T07:54:48.969Z,20672
2016-05-11T07:55:49.019Z,20160
2016-05-11T07:56:48.880Z,19584
2016-05-11T07:57:48.914Z,19232
2016-05-11T07:58:48.933Z,19104
2016-05-11T07:59:49.124Z,18016
2016-05-11T08:00:48.844Z,16948
2016-05-11T08:01:49.191Z,18048
2016-05-11T08:02:49.224Z,17984
2016-05-11T08:03:49.259Z,17216
2016-05-11T08:04:49.262Z,16620
2016-05-11T08:05:49.296Z,17368
2016-05-11T08:06:49.173Z,16708
2016-05-11T08:07:49.363Z,16148
2016-05-11T08:08:49.397Z,14700
2016-05-11T08:09:49.447Z,9436
2016-05-11T08:10:49.450Z,5064
2016-05-11T08:11:49.328Z,4256
2016-05-11T08:12:49.517Z,4260
2016-05-11T08:13:49.536Z,4224
2016-05-11T08:14:49.601Z,4124
2016-05-11T08:15:50.463Z,4040
2016-05-11T08:16:49.637Z,4000
2016-05-11T08:17:49.672Z,3936
2016-05-11T08:18:49.689Z,3884
2016-05-11T08:19:49.755Z,3844
2016-05-11T08:20:49.758Z,3800
2016-05-11T08:21:49.807Z,3772
2016-05-11T08:22:49.810Z,3760
2016-05-11T08:23:49.688Z,3764
2016-05-11T08:24:49.566Z,3756
2016-05-11T08:25:49.911Z,3724
2016-05-11T08:26:49.930Z,3716
2016-05-11T08:27:49.964Z,3704
2016-05-11T08:28:49.998Z,3652
2016-05-11T08:29:49.876Z,3672
2016-05-11T08:30:50.722Z,3668
2016-05-11T08:31:50.084Z,3668
2016-05-11T08:32:49.962Z,3640
2016-05-11T08:33:49.840Z,3624
2016-05-11T08:34:50.014Z,3604
2016-05-11T08:35:50.048Z,3560
2016-05-11T08:36:50.082Z,3520
2016-05-11T08:37:50.256Z,3488
2016-05-11T08:38:50.134Z,3456
2016-05-11T08:39:50.324Z,3420
2016-05-11T08:40:50.187Z,3384
2016-05-11T08:41:50.392Z,3360
2016-05-11T08:42:50.411Z,3352
2016-05-11T08:43:50.445Z,3320
2016-05-11T08:44:50.462Z,3296
2016-05-11T08:45:50.200Z,3268
2016-05-11T08:46:50.531Z,3208
2016-05-11T08:47:50.549Z,3164
2016-05-11T08:48:50.584Z,3132
2016-05-11T08:49:50.461Z,3088
2016-05-11T08:50:50.650Z,3112
2016-05-11T08:51:50.685Z,3124
2016-05-11T08:52:50.703Z,3124
2016-05-11T08:53:50.424Z,3124
2016-05-11T08:54:50.771Z,3124
2016-05-11T08:55:50.789Z,3108
2016-05-11T08:56:50.511Z,3080
2016-05-11T08:57:50.701Z,3040
2016-05-11T08:58:50.891Z,3008
2016-05-11T08:59:50.753Z,2972
2016-05-11T09:00:51.287Z,2940
2016-05-11T09:01:50.993Z,2912
2016-05-11T09:02:50.699Z,2860
2016-05-11T09:03:50.874Z,2808
2016-05-11T09:04:50.923Z,2796
2016-05-11T09:05:50.925Z,2784
2016-05-11T09:06:51.132Z,2772
2016-05-11T09:07:51.165Z,2776
2016-05-11T09:08:51.214Z,2728
2016-05-11T09:09:53.921Z,2724
2016-05-11T09:10:51.126Z,2728
2016-05-11T09:11:51.270Z,2744
2016-05-11T09:12:51.288Z,2748
2016-05-11T09:13:51.337Z,2744
2016-05-11T09:14:51.356Z,2740
2016-05-11T09:15:53.561Z,2724
2016-05-11T09:16:51.423Z,2708
2016-05-11T09:17:51.442Z,2692
2016-05-11T09:18:51.319Z,2672
2016-05-11T09:19:51.354Z,2664
2016-05-11T09:20:51.544Z,2668
2016-05-11T09:21:51.562Z,2668
2016-05-11T09:22:51.425Z,2672
2016-05-11T09:23:51.614Z,2672
2016-05-11T09:24:51.649Z,2676
2016-05-11T09:25:51.683Z,2680
2016-05-11T09:26:51.732Z,2688
2016-05-11T09:27:51.594Z,2672
2016-05-11T09:28:51.769Z,2648
2016-05-11T09:29:51.802Z,2628
2016-05-11T09:30:51.680Z,2616
2016-05-11T09:31:51.699Z,2620
2016-05-11T09:32:51.888Z,2624
2016-05-11T09:33:51.907Z,2636
2016-05-11T09:34:51.941Z,2640
2016-05-11T09:35:51.834Z,2652
2016-05-11T09:36:51.837Z,2668
2016-05-11T09:37:52.026Z,2688
2016-05-11T09:38:52.046Z,2696
2016-05-11T09:39:52.080Z,2708
2016-05-11T09:40:51.957Z,2712
2016-05-11T09:41:51.991Z,2724
2016-05-11T09:42:52.009Z,2696
2016-05-11T09:43:52.215Z,2656
2016-05-11T09:44:52.233Z,2636
2016-05-11T09:45:52.626Z,2652
2016-05-11T09:46:52.301Z,2640
2016-05-11T09:47:52.320Z,2628
2016-05-11T09:48:52.353Z,2632
2016-05-11T09:49:52.059Z,2636
2016-05-11T09:50:52.422Z,2640
2016-05-11T09:51:52.425Z,2668
2016-05-11T09:52:52.302Z,2684
2016-05-11T09:53:52.492Z,2700
2016-05-11T09:54:52.541Z,2724
2016-05-11T09:55:52.544Z,2740
2016-05-11T09:56:52.578Z,2760
2016-05-11T09:57:52.613Z,2800
2016-05-11T09:58:52.661Z,2872
2016-05-11T09:59:52.508Z,2868
2016-05-11T10:00:52.401Z,2860
2016-05-11T10:01:52.576Z,2876
2016-05-11T10:02:52.751Z,2884
2016-05-11T10:03:52.659Z,2888
2016-05-11T10:04:52.850Z,2912
2016-05-11T10:05:52.837Z,2892
2016-05-11T10:06:52.871Z,2860
2016-05-11T10:07:52.733Z,2816
2016-05-11T10:08:52.923Z,2820
2016-05-11T10:09:52.957Z,2820
2016-05-11T10:10:52.976Z,2880
2016-05-11T10:11:53.009Z,2936
2016-05-11T10:12:53.309Z,2924
2016-05-11T10:13:53.062Z,2976
2016-05-11T10:14:53.189Z,2984
2016-05-11T10:15:53.754Z,3036
2016-05-11T10:16:52.882Z,3120
2016-05-11T10:17:53.181Z,3184
2016-05-11T10:18:52.904Z,3208
2016-05-11T10:19:53.265Z,3240
2016-05-11T10:20:53.112Z,3276
2016-05-11T10:21:53.302Z,3240
2016-05-11T10:22:53.444Z,3212
2016-05-11T10:23:53.354Z,3280
2016-05-11T10:24:53.372Z,3332
2016-05-11T10:25:53.797Z,3408
2016-05-11T10:26:53.472Z,3500
2016-05-11T10:27:53.318Z,3616
2016-05-11T10:28:53.508Z,3648
2016-05-11T10:29:53.370Z,3688
2016-05-11T10:30:53.560Z,3640
2016-05-11T10:32:52.611Z,3416
2016-05-11T10:33:05.238Z,3396
2016-05-11T10:34:05.256Z,3288
2016-05-11T10:35:05.118Z,3260
2016-05-11T10:36:05.325Z,3188
2016-05-11T10:37:05.373Z,3168
2016-05-11T10:38:05.221Z,3156
2016-05-11T10:39:05.394Z,3152
2016-05-11T10:40:05.429Z,3140
2016-05-11T10:41:05.463Z,3136
2016-05-11T10:42:05.482Z,3108
2016-05-11T10:43:05.515Z,3136
2016-05-11T10:44:05.657Z,3208
2016-05-11T10:45:05.567Z,3204
2016-05-11T10:46:05.882Z,3228
2016-05-11T10:47:05.822Z,3228
2016-05-11T10:48:05.715Z,3268
2016-05-11T10:49:09.187Z,3292
2016-05-11T10:50:05.721Z,3308
2016-05-11T10:51:05.598Z,3364
2016-05-11T10:52:05.773Z,3412
2016-05-11T10:53:05.636Z,3460
2016-05-11T10:54:06.717Z,3560
2016-05-11T10:55:05.875Z,3596
2016-05-11T10:56:05.894Z,3672
2016-05-11T10:57:05.911Z,3732
2016-05-11T10:58:05.945Z,3748
2016-05-11T10:59:05.683Z,3892
2016-05-11T11:00:06.014Z,3924
2016-05-11T11:01:06.047Z,4012
2016-05-11T11:02:06.066Z,4072
2016-05-11T11:03:05.928Z,4104
2016-05-11T11:04:06.806Z,4080
2016-05-11T11:05:06.136Z,4088
2016-05-11T11:06:06.171Z,4104
2016-05-11T11:07:06.205Z,4112
2016-05-11T11:08:06.222Z,4068
2016-05-11T11:09:08.163Z,4068
2016-05-11T11:10:06.290Z,4044
2016-05-11T11:11:06.325Z,4016
2016-05-11T11:12:06.343Z,3716
2016-05-11T11:13:06.376Z,3728
2016-05-11T11:14:07.864Z,4072
2016-05-11T11:15:06.445Z,4140
2016-05-11T11:16:06.478Z,4220
2016-05-11T11:17:06.325Z,4324
2016-05-11T11:18:06.360Z,4444
2016-05-11T11:19:08.362Z,4488
2016-05-11T11:20:06.411Z,4440
2016-05-11T11:21:06.602Z,4596
2016-05-11T11:22:06.635Z,4684
2016-05-11T11:23:06.513Z,4588
2016-05-11T11:24:07.484Z,4560
2016-05-11T11:25:06.393Z,4524
2016-05-11T11:26:06.600Z,4500
2016-05-11T11:27:06.773Z,4580
2016-05-11T11:28:06.792Z,4584
2016-05-11T11:29:07.186Z,4496
2016-05-11T11:30:06.860Z,4452
2016-05-11T11:31:06.753Z,4480
2016-05-11T11:32:06.912Z,4524
2016-05-11T11:33:06.790Z,4304
2016-05-11T11:34:07.855Z,4116
2016-05-11T11:35:06.999Z,4144
2016-05-11T11:36:06.751Z,4384
2016-05-11T11:37:06.894Z,4284
2016-05-11T11:38:06.928Z,4372
2016-05-11T11:39:07.337Z,4604
2016-05-11T11:40:07.152Z,5128
2016-05-11T11:41:07.186Z,5116
2016-05-11T11:42:07.205Z,4972
2016-05-11T11:43:07.223Z,4708
2016-05-11T11:44:07.319Z,4664
2016-05-11T11:45:07.291Z,4672
2016-05-11T11:46:07.013Z,4736
2016-05-11T11:47:07.343Z,4576
2016-05-11T11:48:07.362Z,4576
2016-05-11T11:49:07.849Z,4484
2016-05-11T11:50:07.429Z,4304
2016-05-11T11:51:07.306Z,3920
2016-05-11T11:52:07.357Z,3624
2016-05-11T11:53:07.531Z,3500
2016-05-11T11:54:08.550Z,3464
2016-05-11T11:55:07.567Z,3392
2016-05-11T11:56:07.602Z,3312
2016-05-11T11:57:07.620Z,3268
2016-05-11T11:58:07.497Z,3188
2016-05-11T11:59:08.673Z,3184
2016-05-11T12:00:09.879Z,3164
2016-05-11T12:01:08.256Z,3092
2016-05-11T12:02:10.071Z,2992
2016-05-11T12:03:07.808Z,2900
2016-05-11T12:04:07.827Z,2932
2016-05-11T12:05:07.860Z,3060
2016-05-11T12:06:07.878Z,3152
2016-05-11T12:07:07.913Z,3044
2016-05-11T12:08:07.947Z,3048
2016-05-11T12:09:07.965Z,3024
2016-05-11T12:10:07.843Z,2968
2016-05-11T12:11:07.877Z,2932
2016-05-11T12:12:08.052Z,2884
2016-05-11T12:13:08.694Z,2828
2016-05-11T12:14:08.104Z,2776
2016-05-11T12:15:07.965Z,2740
2016-05-11T12:16:08.671Z,2708
2016-05-11T12:17:08.205Z,2684
2016-05-11T12:18:08.129Z,2648
2016-05-11T12:19:07.788Z,2608
2016-05-11T12:20:08.276Z,2568
2016-05-11T12:21:08.013Z,2532
2016-05-11T12:22:08.343Z,2520
2016-05-11T12:23:08.362Z,2532
2016-05-11T12:24:08.115Z,2564
2016-05-11T12:25:08.429Z,2592
2016-05-11T12:26:08.464Z,2624
2016-05-11T12:27:08.482Z,2644
2016-05-11T12:28:08.517Z,2656
2016-05-11T12:29:08.534Z,2672
2016-05-11T12:30:08.584Z,2672
2016-05-11T12:31:08.758Z,2676
2016-05-11T12:32:08.652Z,2692
2016-05-11T12:33:08.701Z,2676
2016-05-11T12:34:08.703Z,2656
2016-05-11T12:35:08.722Z,2616
2016-05-11T12:36:08.756Z,2568
2016-05-11T12:37:08.862Z,2540
2016-05-11T12:38:08.787Z,2524
2016-05-11T12:39:08.962Z,2540
2016-05-11T12:40:09.028Z,2564
2016-05-11T12:41:09.094Z,2592
2016-05-11T12:42:09.189Z,2592
2016-05-11T12:43:09.209Z,2588
2016-05-11T12:44:09.306Z,2580
2016-05-11T12:45:09.311Z,2580
2016-05-11T12:46:09.112Z,2596
2016-05-11T12:47:09.391Z,2628
2016-05-11T12:48:09.446Z,2656
2016-05-11T12:49:09.502Z,2680
2016-05-11T12:50:09.339Z,2712
2016-05-11T12:51:09.552Z,2752
2016-05-11T12:52:09.589Z,2820
2016-05-11T12:53:09.594Z,2912
2016-05-11T12:54:09.613Z,3032
2016-05-11T12:55:09.650Z,3184
2016-05-11T12:56:09.670Z,3364
2016-05-11T12:57:09.611Z,3592
2016-05-11T12:58:09.630Z,3776
2016-05-11T12:59:09.650Z,3924
2016-05-11T13:00:09.701Z,4056
2016-05-11T13:01:09.657Z,4168
2016-05-11T13:02:09.754Z,4256
2016-05-11T13:03:09.772Z,4300
2016-05-11T13:04:09.807Z,4308
2016-05-11T13:05:09.919Z,4300
2016-05-11T13:11:22.701Z,4752
2016-05-11T13:12:22.876Z,4072
2016-05-11T13:13:22.910Z,3872
2016-05-11T13:14:22.928Z,4264
2016-05-11T13:15:22.977Z,4052
2016-05-11T13:16:22.730Z,3912
2016-05-11T13:17:23.015Z,3748
2016-05-11T13:18:23.063Z,3588
2016-05-11T13:19:23.113Z,3576
2016-05-11T13:20:22.960Z,3428
2016-05-11T13:21:23.150Z,3324
2016-05-11T13:22:23.169Z,3176
2016-05-11T13:23:23.202Z,3124
2016-05-11T13:24:23.220Z,3076
2016-05-11T13:25:23.255Z,3072
2016-05-11T13:26:23.289Z,3064
2016-05-11T13:27:23.150Z,2992
2016-05-11T13:28:23.341Z,2928
2016-05-11T13:29:23.375Z,2804
2016-05-11T13:30:23.253Z,2788
2016-05-11T13:31:23.287Z,2752
2016-05-11T13:32:23.462Z,2676
2016-05-11T13:33:23.354Z,2668
2016-05-11T13:34:23.373Z,2600
2016-05-11T13:35:23.578Z,2544
2016-05-11T13:36:23.566Z,2552
2016-05-11T13:37:23.614Z,2576
2016-05-11T13:38:27.212Z,2624
2016-05-11T13:39:23.699Z,2644
2016-05-11T13:40:23.545Z,2648
2016-05-11T13:41:23.610Z,2632
2016-05-11T13:42:23.738Z,2624
2016-05-11T13:43:23.616Z,2624